createdAt,value
2022-10-20T00:01:11.961Z,13.50
2022-10-20T00:03:42.130Z,13.60
2022-10-20T00:06:12.961Z,11.53
2022-10-20T00:08:43.778Z,10.87
2022-10-20T00:11:12.895Z,13.97
2022-10-20T00:13:41.600Z,13.80
2022-10-20T00:16:12.131Z,11.20
2022-10-20T00:18:40.080Z,14.67
2022-10-20T00:21:20.300Z,11.63
2022-10-20T00:23:47.757Z,15.93
2022-10-20T00:26:18.922Z,17.43
2022-10-20T00:28:46.265Z,15.00
2022-10-20T00:31:14.555Z,12.93
2022-10-20T00:33:41.981Z,15.43
2022-10-20T00:36:13.111Z,13.13
2022-10-20T00:38:40.427Z,16.70
2022-10-20T00:41:08.377Z,13.87
2022-10-20T00:43:57.249Z,12.17
2022-10-20T00:46:30.606Z,12.10
2022-10-20T00:49:01.856Z,13.40
2022-10-20T00:51:30.855Z,12.90
2022-10-20T00:54:11.708Z,11.47
2022-10-20T00:56:43.838Z,11.17
2022-10-20T00:59:14.522Z,10.40
2022-10-20T01:01:43.515Z,12.80
2022-10-20T01:04:13.438Z,12.93
2022-10-20T01:06:40.699Z,11.83
2022-10-20T01:09:08.592Z,15.53
2022-10-20T01:12:01.716Z,14.13
2022-10-20T01:14:51.645Z,15.53
2022-10-20T01:17:30.682Z,13.83
2022-10-20T01:20:16.583Z,15.93
2022-10-20T01:23:21.333Z,15.87
2022-10-20T01:26:13.526Z,16.00
2022-10-20T01:28:55.613Z,14.33
2022-10-20T01:31:31.993Z,12.13
2022-10-20T01:34:13.121Z,10.90
2022-10-20T01:36:47.748Z,10.90
2022-10-20T01:40:06.046Z,14.27
2022-10-20T01:45:06.986Z,11.00
2022-10-20T01:47:36.328Z,13.33
2022-10-20T01:50:08.333Z,11.37
2022-10-20T01:52:38.310Z,14.67
2022-10-20T01:55:17.198Z,11.63
2022-10-20T01:58:12.213Z,17.03
2022-10-20T02:00:43.364Z,12.57
2022-10-20T02:03:31.345Z,13.70
2022-10-20T02:06:25.966Z,10.63
2022-10-20T02:08:57.550Z,14.77
2022-10-20T02:11:55.069Z,14.13
2022-10-20T02:14:23.603Z,13.53
2022-10-20T02:16:59.223Z,12.37
2022-10-20T02:19:30.383Z,14.93
2022-10-20T02:22:01.323Z,13.23
2022-10-20T02:24:34.153Z,13.03
2022-10-20T02:27:05.389Z,11.23
2022-10-20T02:29:53.764Z,12.30
2022-10-20T02:32:22.916Z,13.27
2022-10-20T02:34:50.156Z,12.00
2022-10-20T02:37:19.758Z,10.60
2022-10-20T02:39:47.005Z,13.47
2022-10-20T02:42:14.382Z,12.90
2022-10-20T02:44:41.655Z,11.67
2022-10-20T02:47:08.885Z,10.97
2022-10-20T02:49:36.095Z,11.53
2022-10-20T02:52:03.379Z,11.90
2022-10-20T02:54:30.587Z,13.37
2022-10-20T02:56:57.782Z,12.00
2022-10-20T02:59:27.459Z,12.07
2022-10-20T03:01:54.738Z,14.43
2022-10-20T03:04:22.031Z,11.63
2022-10-20T03:06:49.456Z,12.03
2022-10-20T03:09:16.683Z,11.10
2022-10-20T03:11:43.883Z,11.87
2022-10-20T03:14:11.638Z,10.27
2022-10-20T03:16:39.544Z,14.07
2022-10-20T03:19:09.134Z,12.17
2022-10-20T03:21:38.823Z,12.17
2022-10-20T03:24:06.301Z,12.50
2022-10-20T03:26:33.803Z,10.10
2022-10-20T03:29:01.012Z,13.33
2022-10-20T03:31:28.179Z,12.30
2022-10-20T03:33:55.404Z,14.10
2022-10-20T03:36:25.062Z,11.90
2022-10-20T03:38:52.257Z,13.03
2022-10-20T03:41:21.787Z,11.30
2022-10-20T03:43:48.986Z,13.87
2022-10-20T03:46:18.360Z,11.80
2022-10-20T03:48:45.678Z,12.00
2022-10-20T03:51:14.087Z,10.40
2022-10-20T03:53:45.356Z,11.33
2022-10-20T03:56:18.050Z,11.23
2022-10-20T03:58:46.014Z,10.73
2022-10-20T04:01:18.112Z,10.93
2022-10-20T04:03:45.324Z,11.03
2022-10-20T04:06:13.466Z,12.30
2022-10-20T04:08:40.744Z,10.33
2022-10-20T04:11:08.071Z,12.90
2022-10-20T04:13:35.270Z,10.87
2022-10-20T04:16:02.505Z,12.20
2022-10-20T04:18:29.779Z,10.73
2022-10-20T04:20:56.964Z,13.20
2022-10-20T04:23:24.208Z,10.87
2022-10-20T04:25:51.454Z,11.87
2022-10-20T04:28:21.088Z,12.63
2022-10-20T04:30:50.812Z,11.60
2022-10-20T04:33:18.082Z,12.00
2022-10-20T04:35:45.392Z,13.13
2022-10-20T04:38:12.627Z,12.50
2022-10-20T04:40:39.871Z,13.60
2022-10-20T04:43:07.061Z,13.43
2022-10-20T04:45:37.007Z,12.90
2022-10-20T04:48:05.451Z,12.20
2022-10-20T04:50:32.671Z,12.73
2022-10-20T04:53:00.025Z,10.13
2022-10-20T04:55:27.314Z,11.67
2022-10-20T04:57:54.619Z,12.30
2022-10-20T05:00:21.842Z,11.10
2022-10-20T05:02:51.175Z,12.53
2022-10-20T05:05:18.460Z,11.83
2022-10-20T05:07:45.597Z,11.33
2022-10-20T05:10:12.851Z,13.70
2022-10-20T05:12:42.411Z,16.83
2022-10-20T05:15:09.849Z,13.40
2022-10-20T05:17:39.904Z,10.20
2022-10-20T05:20:09.675Z,15.40
2022-10-20T05:22:37.245Z,14.37
2022-10-20T05:25:31.349Z,13.40
2022-10-20T05:27:54.987Z,13.60
2022-10-20T05:30:22.187Z,14.40
2022-10-20T05:32:49.339Z,14.43
2022-10-20T05:35:16.565Z,12.80
2022-10-20T05:37:43.764Z,16.20
2022-10-20T05:40:11.646Z,14.40
2022-10-20T05:42:39.426Z,15.80
2022-10-20T05:45:07.378Z,14.67
2022-10-20T05:47:35.005Z,14.17
2022-10-20T05:50:02.304Z,12.40
2022-10-20T05:52:29.505Z,12.83
2022-10-20T05:54:56.780Z,13.97
2022-10-20T05:57:24.239Z,15.13
2022-10-20T05:59:51.428Z,13.33
2022-10-20T06:02:19.040Z,14.93
2022-10-20T06:04:46.233Z,13.03
2022-10-20T06:07:13.458Z,13.80
2022-10-20T06:09:41.238Z,13.43
2022-10-20T06:14:43.098Z,17.40
2022-10-20T06:17:12.656Z,12.77
2022-10-20T06:19:39.880Z,12.90
2022-10-20T06:22:07.161Z,16.33
2022-10-20T06:24:34.839Z,13.20
2022-10-20T06:27:02.003Z,11.77
2022-10-20T06:29:31.340Z,18.27
2022-10-20T06:32:00.674Z,19.50
2022-10-20T06:34:27.934Z,13.63
2022-10-20T06:36:55.167Z,21.57
2022-10-20T06:39:24.990Z,25.53
2022-10-20T06:41:54.236Z,19.47
2022-10-20T06:44:23.582Z,20.23
2022-10-20T06:46:54.533Z,14.27
2022-10-20T06:49:22.510Z,17.43
2022-10-20T06:51:50.200Z,14.73
2022-10-20T06:54:17.916Z,12.13
2022-10-20T06:56:45.189Z,14.13
2022-10-20T06:59:14.755Z,14.13
2022-10-20T07:01:42.357Z,21.20
2022-10-20T07:04:16.313Z,11.53
2022-10-20T07:06:45.227Z,13.67
2022-10-20T07:09:18.307Z,14.33
2022-10-20T07:11:45.875Z,13.20
2022-10-20T07:14:14.214Z,12.43
2022-10-20T07:16:43.674Z,11.83
2022-10-20T07:19:11.058Z,13.30
2022-10-20T07:21:41.592Z,12.40
2022-10-20T07:24:13.072Z,11.47
2022-10-20T07:26:41.785Z,16.97
2022-10-20T07:29:10.580Z,15.07
2022-10-20T07:31:48.215Z,17.50
2022-10-20T07:34:25.868Z,14.33
2022-10-20T07:36:59.600Z,13.67
2022-10-20T07:39:27.476Z,12.43
2022-10-20T07:41:55.072Z,13.10
2022-10-20T07:44:22.533Z,10.20
2022-10-20T07:46:50.163Z,11.50
2022-10-20T07:49:42.766Z,14.23
2022-10-20T07:52:05.231Z,10.80
2022-10-20T07:54:32.568Z,12.50
2022-10-20T07:56:59.836Z,13.63
2022-10-20T07:59:27.203Z,11.57
2022-10-20T08:01:56.137Z,10.77
2022-10-20T08:04:28.120Z,10.60
2022-10-20T08:06:55.318Z,11.90
2022-10-20T08:09:22.960Z,13.20
2022-10-20T08:11:52.927Z,13.20
2022-10-20T08:14:27.374Z,10.67
2022-10-20T08:16:57.303Z,12.73
2022-10-20T08:19:40.440Z,13.23
2022-10-20T08:22:10.416Z,12.53
2022-10-20T08:24:42.577Z,9.80
2022-10-20T08:27:09.819Z,12.80
2022-10-20T08:29:37.904Z,13.80
2022-10-20T08:32:05.547Z,11.57
2022-10-20T08:34:32.867Z,12.97
2022-10-20T08:37:00.240Z,9.77
2022-10-20T08:39:27.530Z,11.10
2022-10-20T08:42:07.668Z,11.67
2022-10-20T08:44:38.251Z,15.30
2022-10-20T08:47:16.347Z,12.00
2022-10-20T08:49:45.802Z,14.33
2022-10-20T08:52:15.360Z,16.63
2022-10-20T08:54:48.559Z,16.87
2022-10-20T08:57:23.309Z,14.00
2022-10-20T08:59:56.375Z,11.70
2022-10-20T09:02:23.717Z,12.33
2022-10-20T09:04:58.906Z,13.97
2022-10-20T09:07:34.105Z,13.13
2022-10-20T09:10:24.569Z,15.10
2022-10-20T09:13:32.596Z,10.73
2022-10-20T09:16:40.578Z,12.30
2022-10-20T09:19:29.482Z,14.77
2022-10-20T09:22:07.018Z,13.33
2022-10-20T09:24:36.291Z,11.23
2022-10-20T09:27:39.855Z,14.17
2022-10-20T09:30:18.826Z,16.27
2022-10-20T09:32:48.015Z,12.13
2022-10-20T09:35:17.839Z,12.27
2022-10-20T09:37:54.942Z,10.67
2022-10-20T09:40:24.124Z,8.33
2022-10-20T09:42:57.141Z,11.90
2022-10-20T09:45:28.938Z,14.53
2022-10-20T09:48:03.109Z,8.90
2022-10-20T09:50:39.378Z,12.57
2022-10-20T09:53:18.628Z,11.13
2022-10-20T09:55:49.828Z,11.93
2022-10-20T09:58:23.262Z,12.50
2022-10-20T10:01:13.158Z,12.07
2022-10-20T10:03:45.527Z,10.93
2022-10-20T10:06:44.659Z,10.93
2022-10-20T10:09:37.847Z,12.67
2022-10-20T10:12:19.631Z,10.33
2022-10-20T10:15:00.547Z,13.63
2022-10-20T10:17:37.089Z,10.50
2022-10-20T10:20:36.806Z,11.00
2022-10-20T10:23:22.562Z,10.30
2022-10-20T10:25:51.346Z,10.95
2022-10-20T10:28:31.233Z,12.90
2022-10-20T10:31:27.882Z,10.45
2022-10-20T10:34:13.107Z,9.47
2022-10-20T10:36:40.675Z,10.67
2022-10-20T10:39:13.724Z,8.85
2022-10-20T10:42:03.043Z,14.87
2022-10-20T10:44:37.982Z,9.05
2022-10-20T10:47:16.751Z,11.80
2022-10-20T10:50:03.322Z,11.70
2022-10-20T10:53:14.509Z,11.82
2022-10-20T10:55:48.990Z,8.10
2022-10-20T10:58:38.143Z,9.63
2022-10-20T11:01:14.751Z,9.90
2022-10-20T11:04:19.565Z,8.13
2022-10-20T11:07:03.789Z,10.27
2022-10-20T11:09:45.169Z,7.18
2022-10-20T11:12:42.230Z,10.17
2022-10-20T11:15:24.784Z,8.85
2022-10-20T11:18:30.958Z,10.60
2022-10-20T11:21:31.682Z,11.73
2022-10-20T11:24:40.224Z,10.68
2022-10-20T11:27:13.710Z,9.35
2022-10-20T11:29:49.887Z,8.88
2022-10-20T11:32:26.814Z,7.72
2022-10-20T11:35:21.043Z,10.98
2022-10-20T11:37:50.263Z,7.63
2022-10-20T11:40:23.693Z,9.30
2022-10-20T11:43:14.079Z,9.50
2022-10-20T11:46:20.959Z,7.72
2022-10-20T11:48:59.159Z,12.73
2022-10-20T11:51:30.445Z,9.85
2022-10-20T11:54:25.589Z,6.85
2022-10-20T11:57:17.193Z,7.68
2022-10-20T11:59:48.145Z,9.52
2022-10-20T12:02:21.213Z,9.43
2022-10-20T12:05:12.820Z,9.68
2022-10-20T12:08:28.285Z,8.88
2022-10-20T12:11:05.910Z,8.35
2022-10-20T12:13:54.398Z,7.20
2022-10-20T12:16:55.715Z,6.30
2022-10-20T12:19:22.861Z,7.63
2022-10-20T12:22:05.035Z,6.28
2022-10-20T12:24:38.401Z,8.13
2022-10-20T12:27:08.681Z,8.35
2022-10-20T12:29:38.014Z,8.55
2022-10-20T12:32:26.144Z,7.18
2022-10-20T12:34:59.105Z,8.90
2022-10-20T12:37:33.522Z,9.57
2022-10-20T12:40:07.545Z,5.78
2022-10-20T12:42:47.796Z,7.82
2022-10-20T12:45:21.080Z,6.55
2022-10-20T12:47:55.209Z,8.00
2022-10-20T12:50:36.847Z,6.85
2022-10-20T12:53:30.927Z,4.68
2022-10-20T12:56:03.141Z,6.00
2022-10-20T12:58:33.500Z,7.15
2022-10-20T13:01:05.518Z,5.40
2022-10-20T13:03:58.833Z,4.32
2022-10-20T13:06:30.829Z,6.85
2022-10-20T13:09:04.029Z,6.93
2022-10-20T13:11:43.266Z,5.50
2022-10-20T13:14:13.587Z,11.68
2022-10-20T13:17:00.425Z,9.13
2022-10-20T13:19:44.636Z,6.22
2022-10-20T13:22:53.609Z,5.78
2022-10-20T13:25:48.584Z,4.35
2022-10-20T13:28:20.720Z,10.02
2022-10-20T13:31:02.629Z,4.50
2022-10-20T13:34:04.641Z,4.30
2022-10-20T13:36:35.554Z,6.03
2022-10-20T13:39:26.167Z,8.63
2022-10-20T13:41:56.081Z,5.20
2022-10-20T13:44:31.208Z,4.20
2022-10-20T13:47:36.035Z,5.28
2022-10-20T13:50:14.917Z,5.20
2022-10-20T13:52:46.138Z,5.20
2022-10-20T13:55:23.437Z,7.30
2022-10-20T13:57:55.459Z,4.88
2022-10-20T14:00:33.103Z,6.70
2022-10-20T14:03:03.877Z,3.88
2022-10-20T14:05:39.236Z,5.40
2022-10-20T14:08:12.032Z,3.67
2022-10-20T14:10:57.842Z,8.45
2022-10-20T14:13:38.071Z,5.43
2022-10-20T14:16:23.978Z,5.18
2022-10-20T14:19:11.509Z,3.30
2022-10-20T14:21:45.444Z,5.70
2022-10-20T14:24:22.705Z,4.85
2022-10-20T14:26:50.406Z,3.97
2022-10-20T14:29:19.720Z,4.65
2022-10-20T14:31:48.187Z,4.80
2022-10-20T14:34:21.164Z,4.95
2022-10-20T14:36:53.120Z,4.63
2022-10-20T14:39:36.780Z,4.65
2022-10-20T14:42:35.386Z,3.65
2022-10-20T14:45:04.060Z,4.88
2022-10-20T14:47:39.906Z,3.63
2022-10-20T14:50:42.405Z,3.47
2022-10-20T14:53:31.601Z,5.90
2022-10-20T14:56:02.431Z,4.13
2022-10-20T14:58:54.223Z,3.50
2022-10-20T15:01:32.373Z,4.38
2022-10-20T15:04:24.705Z,3.60
2022-10-20T15:07:20.838Z,6.70
2022-10-20T15:09:54.203Z,5.72
2022-10-20T15:12:28.090Z,5.15
2022-10-20T15:15:27.158Z,6.45
2022-10-20T15:18:13.523Z,5.85
2022-10-20T15:20:43.419Z,7.18
2022-10-20T15:23:20.691Z,5.68
2022-10-20T15:26:04.259Z,4.30
2022-10-20T15:28:43.591Z,4.18
2022-10-20T15:31:13.975Z,5.20
2022-10-20T15:33:42.209Z,4.25
2022-10-20T15:36:21.737Z,5.68
2022-10-20T15:38:49.986Z,5.25
2022-10-20T15:41:19.545Z,5.38
2022-10-20T15:43:49.232Z,10.07
2022-10-20T15:46:17.610Z,7.70
2022-10-20T15:48:45.470Z,6.65
2022-10-20T15:51:21.593Z,4.55
2022-10-20T15:53:49.981Z,3.42
2022-10-20T15:56:17.907Z,7.30
2022-10-20T15:58:49.997Z,4.95
2022-10-20T16:01:18.804Z,6.28
2022-10-20T16:03:49.694Z,2.92
2022-10-20T16:06:19.681Z,4.35
2022-10-20T16:08:48.925Z,6.10
2022-10-20T16:11:19.134Z,5.72
2022-10-20T16:13:46.627Z,6.60
2022-10-20T16:16:19.475Z,5.82
2022-10-20T16:18:47.937Z,4.55
2022-10-20T16:21:17.495Z,6.63
2022-10-20T16:23:45.074Z,6.18
2022-10-20T16:26:14.331Z,4.93
2022-10-20T16:28:44.279Z,8.27
2022-10-20T16:31:14.107Z,4.95
2022-10-20T16:33:43.786Z,3.25
2022-10-20T16:36:14.841Z,4.07
2022-10-20T16:38:42.862Z,5.38
2022-10-20T16:41:15.540Z,5.72
2022-10-20T16:43:46.313Z,7.53
2022-10-20T16:46:14.994Z,4.88
2022-10-20T16:48:42.878Z,4.00
2022-10-20T16:51:16.611Z,6.28
2022-10-20T16:53:46.004Z,5.30
2022-10-20T16:56:15.425Z,4.88
2022-10-20T16:58:45.632Z,5.13
2022-10-20T17:01:14.153Z,5.18
2022-10-20T17:03:46.143Z,9.40
2022-10-20T17:06:14.662Z,7.55
2022-10-20T17:08:42.050Z,6.82
2022-10-20T17:11:12.288Z,5.78
2022-10-20T17:13:39.972Z,11.07
2022-10-20T17:16:11.187Z,5.03
2022-10-20T17:18:38.699Z,4.45
2022-10-20T17:21:06.865Z,5.28
2022-10-20T17:23:38.682Z,6.88
2022-10-20T17:26:16.130Z,5.25
2022-10-20T17:28:46.047Z,4.75
2022-10-20T17:33:47.466Z,5.70
2022-10-20T17:36:15.738Z,5.93
2022-10-20T17:38:43.605Z,3.95
2022-10-20T17:41:15.837Z,3.55
2022-10-20T17:43:43.134Z,4.80
2022-10-20T17:46:15.480Z,6.97
2022-10-20T17:48:42.656Z,7.33
2022-10-20T17:51:21.791Z,5.20
2022-10-20T17:53:51.308Z,5.65
2022-10-20T17:56:23.614Z,4.78
2022-10-20T17:58:54.707Z,5.70
2022-10-20T18:01:27.901Z,5.20
2022-10-20T18:04:02.835Z,6.32
2022-10-20T18:06:34.088Z,5.28
2022-10-20T18:09:08.327Z,5.28
2022-10-20T18:11:37.081Z,7.35
2022-10-20T18:14:05.049Z,5.75
2022-10-20T18:16:34.989Z,6.22
2022-10-20T18:19:02.637Z,4.53
2022-10-20T18:21:31.330Z,5.25
2022-10-20T18:24:02.453Z,8.85
2022-10-20T18:26:32.976Z,4.72
2022-10-20T18:29:01.823Z,6.07
2022-10-20T18:31:31.440Z,5.47
2022-10-20T18:34:05.795Z,6.40
2022-10-20T18:36:40.452Z,8.65
2022-10-20T18:39:10.765Z,5.97
2022-10-20T18:41:43.161Z,9.38
2022-10-20T18:44:16.717Z,7.25
2022-10-20T18:46:44.622Z,9.02
2022-10-20T18:49:13.991Z,5.82
2022-10-20T18:51:41.418Z,8.38
2022-10-20T18:54:09.399Z,8.35
2022-10-20T18:56:36.914Z,7.32
2022-10-20T18:59:07.361Z,11.88
2022-10-20T19:01:37.442Z,6.93
2022-10-20T19:04:05.252Z,7.72
2022-10-20T19:06:35.287Z,5.97
2022-10-20T19:09:09.768Z,8.55
2022-10-20T19:11:39.848Z,7.20
2022-10-20T19:14:09.867Z,8.93
2022-10-20T19:16:37.762Z,9.30
2022-10-20T19:19:07.453Z,6.72
2022-10-20T19:21:35.679Z,6.28
2022-10-20T19:24:16.659Z,7.43
2022-10-20T19:26:57.250Z,7.15
2022-10-20T19:29:30.197Z,6.05
2022-10-20T19:32:00.040Z,7.43
2022-10-20T19:34:30.297Z,12.25
2022-10-20T19:36:58.235Z,7.15
2022-10-20T19:39:28.650Z,7.55
2022-10-20T19:41:58.001Z,9.02
2022-10-20T19:44:27.671Z,7.25
2022-10-20T19:46:54.852Z,8.93
2022-10-20T19:49:22.938Z,8.50
2022-10-20T19:51:50.211Z,9.60
2022-10-20T19:54:17.990Z,9.48
2022-10-20T19:56:45.433Z,8.90
2022-10-20T19:59:13.324Z,7.20
2022-10-20T20:01:40.659Z,7.95
2022-10-20T20:04:10.809Z,6.68
2022-10-20T20:06:38.124Z,8.38
2022-10-20T20:09:07.912Z,8.00
2022-10-20T20:11:37.417Z,9.13
2022-10-20T20:14:11.507Z,6.57
2022-10-20T20:16:39.201Z,7.78
2022-10-20T20:19:06.814Z,9.35
2022-10-20T20:21:34.192Z,8.15
2022-10-20T20:24:03.476Z,9.43
2022-10-20T20:26:32.974Z,9.32
2022-10-20T20:29:03.601Z,8.05
2022-10-20T20:31:33.628Z,8.52
2022-10-20T20:34:00.843Z,7.95
2022-10-20T20:36:28.316Z,6.70
2022-10-20T20:38:59.771Z,8.82
2022-10-20T20:41:30.251Z,8.60
2022-10-20T20:43:57.894Z,7.13
2022-10-20T20:46:29.160Z,8.13
2022-10-20T20:49:01.052Z,10.73
2022-10-20T20:51:33.943Z,11.98
2022-10-20T20:54:02.711Z,10.93
2022-10-20T20:56:30.462Z,8.23
2022-10-20T20:58:57.694Z,8.10
2022-10-20T21:01:27.551Z,8.00
2022-10-20T21:03:56.545Z,6.43
2022-10-20T21:06:49.400Z,8.23
2022-10-20T21:09:22.066Z,7.18
2022-10-20T21:11:49.758Z,7.38
2022-10-20T21:14:17.136Z,9.30
2022-10-20T21:16:44.605Z,8.65
2022-10-20T21:19:11.937Z,7.10
2022-10-20T21:21:50.126Z,7.80
2022-10-20T21:24:18.535Z,9.13
2022-10-20T21:26:45.866Z,6.50
2022-10-20T21:29:13.144Z,9.93
2022-10-20T21:31:40.968Z,10.98
2022-10-20T21:34:08.225Z,8.40
2022-10-20T21:36:37.778Z,9.20
2022-10-20T21:39:07.110Z,7.70
2022-10-20T21:41:36.152Z,7.25
2022-10-20T21:44:07.874Z,6.88
2022-10-20T21:46:39.636Z,7.97
2022-10-20T21:49:10.018Z,8.10
2022-10-20T21:51:46.070Z,8.80
2022-10-20T21:54:15.963Z,7.20
2022-10-20T21:56:47.203Z,6.10
2022-10-20T21:59:25.898Z,8.48
2022-10-20T22:01:54.967Z,7.32
2022-10-20T22:04:24.779Z,9.32
2022-10-20T22:06:52.576Z,8.10
2022-10-20T22:09:21.004Z,9.20
2022-10-20T22:11:59.520Z,9.52
2022-10-20T22:14:27.139Z,6.63
2022-10-20T22:16:57.366Z,8.30
2022-10-20T22:19:27.179Z,7.03
2022-10-20T22:24:23.630Z,7.82
2022-10-20T22:26:52.231Z,10.80
2022-10-20T22:29:21.159Z,6.57
2022-10-20T22:31:48.680Z,7.55
2022-10-20T22:34:18.332Z,4.95
2022-10-20T22:36:45.628Z,8.40
2022-10-20T22:41:52.066Z,6.72
2022-10-20T22:44:19.246Z,5.30
2022-10-20T22:46:46.421Z,5.00
2022-10-20T22:49:15.808Z,5.95
2022-10-20T22:51:43.089Z,4.40
2022-10-20T22:54:10.501Z,6.17
2022-10-20T22:56:37.789Z,4.63
2022-10-20T22:59:05.064Z,8.85
2022-10-20T23:01:32.337Z,5.22
2022-10-20T23:03:59.593Z,6.10
2022-10-20T23:06:28.005Z,2.70
2022-10-20T23:08:56.643Z,4.77
2022-10-20T23:11:24.744Z,6.13
2022-10-20T23:13:52.109Z,3.97
2022-10-20T23:16:19.697Z,5.97
2022-10-20T23:18:50.201Z,4.95
2022-10-20T23:21:17.934Z,2.55
2022-10-20T23:23:45.735Z,4.13
2022-10-20T23:26:15.228Z,6.70
2022-10-20T23:28:44.469Z,4.23
2022-10-20T23:31:14.235Z,1.97
2022-10-20T23:33:43.098Z,3.55
2022-10-20T23:36:11.839Z,2.60
2022-10-20T23:38:39.515Z,3.33
2022-10-20T23:41:07.165Z,3.63
2022-10-20T23:46:06.058Z,3.43
2022-10-20T23:48:33.481Z,4.80
2022-10-20T23:51:00.990Z,4.30
2022-10-20T23:53:30.905Z,5.43
2022-10-20T23:55:58.099Z,5.22
2022-10-20T23:58:27.935Z,3.50
